sensor_id;sensor_type;location;lat;lon;timestamp;temperature;humidity
75161;DHT22;63738;50.096;8.716;2022-10-23T00:01:30;14.00;84.90
75161;DHT22;63738;50.096;8.716;2022-10-23T00:04:01;13.90;85.20
75161;DHT22;63738;50.096;8.716;2022-10-23T00:06:27;13.90;85.40
75161;DHT22;63738;50.096;8.716;2022-10-23T00:08:53;13.90;85.40
75161;DHT22;63738;50.096;8.716;2022-10-23T00:11:22;13.90;85.10
75161;DHT22;63738;50.096;8.716;2022-10-23T00:13:49;13.90;85.00
75161;DHT22;63738;50.096;8.716;2022-10-23T00:16:14;13.90;85.10
75161;DHT22;63738;50.096;8.716;2022-10-23T00:18:41;13.90;84.80
75161;DHT22;63738;50.096;8.716;2022-10-23T00:21:11;13.90;84.90
75161;DHT22;63738;50.096;8.716;2022-10-23T00:23:37;13.90;84.90
75161;DHT22;63738;50.096;8.716;2022-10-23T00:26:03;13.80;84.90
75161;DHT22;63738;50.096;8.716;2022-10-23T00:28:29;13.80;85.20
75161;DHT22;63738;50.096;8.716;2022-10-23T00:30:54;13.80;84.80
75161;DHT22;63738;50.096;8.716;2022-10-23T00:33:20;13.80;85.10
75161;DHT22;63738;50.096;8.716;2022-10-23T00:35:46;13.70;85.10
75161;DHT22;63738;50.096;8.716;2022-10-23T00:38:11;13.80;84.90
75161;DHT22;63738;50.096;8.716;2022-10-23T00:40:38;13.70;85.00
75161;DHT22;63738;50.096;8.716;2022-10-23T00:43:04;13.60;85.40
75161;DHT22;63738;50.096;8.716;2022-10-23T00:45:32;13.40;85.70
75161;DHT22;63738;50.096;8.716;2022-10-23T00:47:59;13.50;85.50
75161;DHT22;63738;50.096;8.716;2022-10-23T00:50:28;13.60;85.30
75161;DHT22;63738;50.096;8.716;2022-10-23T00:52:55;13.50;85.20
75161;DHT22;63738;50.096;8.716;2022-10-23T00:55:22;13.60;85.10
75161;DHT22;63738;50.096;8.716;2022-10-23T00:57:49;13.60;85.00
75161;DHT22;63738;50.096;8.716;2022-10-23T01:00:51;13.60;84.80
75161;DHT22;63738;50.096;8.716;2022-10-23T01:03:16;13.50;84.90
75161;DHT22;63738;50.096;8.716;2022-10-23T01:05:49;13.40;85.20
75161;DHT22;63738;50.096;8.716;2022-10-23T01:08:41;13.40;85.10
75161;DHT22;63738;50.096;8.716;2022-10-23T01:11:24;13.40;85.00
75161;DHT22;63738;50.096;8.716;2022-10-23T01:14:03;13.40;85.30
75161;DHT22;63738;50.096;8.716;2022-10-23T01:22:32;13.40;85.40
75161;DHT22;63738;50.096;8.716;2022-10-23T01:27:55;13.40;85.40
75161;DHT22;63738;50.096;8.716;2022-10-23T01:30:24;13.50;85.30
75161;DHT22;63738;50.096;8.716;2022-10-23T01:35:36;13.50;85.40
75161;DHT22;63738;50.096;8.716;2022-10-23T01:38:10;13.50;85.50
75161;DHT22;63738;50.096;8.716;2022-10-23T01:40:58;13.50;85.20
75161;DHT22;63738;50.096;8.716;2022-10-23T01:43:31;13.40;85.30
75161;DHT22;63738;50.096;8.716;2022-10-23T01:46:02;13.40;85.40
75161;DHT22;63738;50.096;8.716;2022-10-23T01:48:30;13.50;85.20
75161;DHT22;63738;50.096;8.716;2022-10-23T01:51:04;13.40;85.40
75161;DHT22;63738;50.096;8.716;2022-10-23T01:53:36;13.50;85.30
75161;DHT22;63738;50.096;8.716;2022-10-23T01:56:08;13.60;85.10
75161;DHT22;63738;50.096;8.716;2022-10-23T01:58:35;13.60;85.10
75161;DHT22;63738;50.096;8.716;2022-10-23T02:01:04;13.60;85.20
75161;DHT22;63738;50.096;8.716;2022-10-23T02:03:32;13.60;85.20
75161;DHT22;63738;50.096;8.716;2022-10-23T02:05:58;13.60;85.10
75161;DHT22;63738;50.096;8.716;2022-10-23T02:08:24;13.50;85.30
75161;DHT22;63738;50.096;8.716;2022-10-23T02:11:07;13.40;85.10
75161;DHT22;63738;50.096;8.716;2022-10-23T02:19:23;13.60;84.70
75161;DHT22;63738;50.096;8.716;2022-10-23T02:22:06;13.50;84.70
75161;DHT22;63738;50.096;8.716;2022-10-23T02:24:40;13.40;85.00
75161;DHT22;63738;50.096;8.716;2022-10-23T02:27:21;13.40;85.20
75161;DHT22;63738;50.096;8.716;2022-10-23T02:29:55;13.30;85.60
75161;DHT22;63738;50.096;8.716;2022-10-23T02:32:25;13.40;85.50
75161;DHT22;63738;50.096;8.716;2022-10-23T02:34:52;13.30;85.30
75161;DHT22;63738;50.096;8.716;2022-10-23T02:37:18;13.30;85.20
75161;DHT22;63738;50.096;8.716;2022-10-23T02:39:44;13.30;85.10
75161;DHT22;63738;50.096;8.716;2022-10-23T02:45:33;13.30;85.20
75161;DHT22;63738;50.096;8.716;2022-10-23T02:48:11;13.20;85.20
75161;DHT22;63738;50.096;8.716;2022-10-23T02:56:20;13.20;85.40
75161;DHT22;63738;50.096;8.716;2022-10-23T02:58:52;13.30;85.60
75161;DHT22;63738;50.096;8.716;2022-10-23T03:01:28;13.20;85.60
75161;DHT22;63738;50.096;8.716;2022-10-23T03:03:56;13.30;85.60
75161;DHT22;63738;50.096;8.716;2022-10-23T03:06:24;13.30;85.40
75161;DHT22;63738;50.096;8.716;2022-10-23T03:08:53;13.20;85.50
75161;DHT22;63738;50.096;8.716;2022-10-23T03:11:19;13.20;85.70
75161;DHT22;63738;50.096;8.716;2022-10-23T03:13:45;13.10;85.70
75161;DHT22;63738;50.096;8.716;2022-10-23T03:16:10;13.10;85.70
75161;DHT22;63738;50.096;8.716;2022-10-23T03:18:36;13.20;85.70
75161;DHT22;63738;50.096;8.716;2022-10-23T03:21:01;13.10;85.90
75161;DHT22;63738;50.096;8.716;2022-10-23T03:23:27;13.10;85.90
75161;DHT22;63738;50.096;8.716;2022-10-23T03:25:53;13.10;85.90
75161;DHT22;63738;50.096;8.716;2022-10-23T03:28:19;13.20;85.60
75161;DHT22;63738;50.096;8.716;2022-10-23T03:30:44;13.10;85.90
75161;DHT22;63738;50.096;8.716;2022-10-23T03:33:10;13.10;85.90
75161;DHT22;63738;50.096;8.716;2022-10-23T03:35:35;13.10;85.60
75161;DHT22;63738;50.096;8.716;2022-10-23T03:38:01;13.00;85.90
75161;DHT22;63738;50.096;8.716;2022-10-23T03:40:27;13.00;85.70
75161;DHT22;63738;50.096;8.716;2022-10-23T03:42:52;13.00;85.70
75161;DHT22;63738;50.096;8.716;2022-10-23T03:45:18;12.80;86.10
75161;DHT22;63738;50.096;8.716;2022-10-23T03:47:44;12.90;85.80
75161;DHT22;63738;50.096;8.716;2022-10-23T03:50:10;13.00;85.70
75161;DHT22;63738;50.096;8.716;2022-10-23T03:52:36;13.00;85.50
75161;DHT22;63738;50.096;8.716;2022-10-23T03:55:02;13.00;85.50
75161;DHT22;63738;50.096;8.716;2022-10-23T03:57:28;13.00;85.00
75161;DHT22;63738;50.096;8.716;2022-10-23T03:59:54;12.90;85.20
75161;DHT22;63738;50.096;8.716;2022-10-23T04:02:19;12.90;85.20
75161;DHT22;63738;50.096;8.716;2022-10-23T04:04:45;12.80;85.40
75161;DHT22;63738;50.096;8.716;2022-10-23T04:07:11;12.80;85.60
75161;DHT22;63738;50.096;8.716;2022-10-23T04:09:36;12.80;85.70
75161;DHT22;63738;50.096;8.716;2022-10-23T04:12:02;12.80;85.60
75161;DHT22;63738;50.096;8.716;2022-10-23T04:14:28;12.80;85.60
75161;DHT22;63738;50.096;8.716;2022-10-23T04:16:54;12.70;85.70
75161;DHT22;63738;50.096;8.716;2022-10-23T04:19:19;12.70;85.70
75161;DHT22;63738;50.096;8.716;2022-10-23T04:21:45;12.80;85.80
75161;DHT22;63738;50.096;8.716;2022-10-23T04:24:10;12.80;85.60
75161;DHT22;63738;50.096;8.716;2022-10-23T04:26:36;12.70;85.80
75161;DHT22;63738;50.096;8.716;2022-10-23T04:29:02;12.80;85.90
75161;DHT22;63738;50.096;8.716;2022-10-23T04:31:27;12.90;85.60
75161;DHT22;63738;50.096;8.716;2022-10-23T04:33:53;12.80;85.70
75161;DHT22;63738;50.096;8.716;2022-10-23T04:36:19;12.80;85.60
75161;DHT22;63738;50.096;8.716;2022-10-23T04:38:44;12.80;85.50
75161;DHT22;63738;50.096;8.716;2022-10-23T04:41:10;12.80;85.60
75161;DHT22;63738;50.096;8.716;2022-10-23T04:43:35;12.80;85.80
75161;DHT22;63738;50.096;8.716;2022-10-23T04:46:01;12.90;85.90
75161;DHT22;63738;50.096;8.716;2022-10-23T04:48:27;12.80;85.70
75161;DHT22;63738;50.096;8.716;2022-10-23T04:51:01;12.90;85.80
75161;DHT22;63738;50.096;8.716;2022-10-23T04:53:28;12.90;85.60
75161;DHT22;63738;50.096;8.716;2022-10-23T04:55:56;12.90;85.60
75161;DHT22;63738;50.096;8.716;2022-10-23T04:58:23;12.80;85.90
75161;DHT22;63738;50.096;8.716;2022-10-23T05:00:50;12.90;85.80
75161;DHT22;63738;50.096;8.716;2022-10-23T05:03:17;12.90;85.70
75161;DHT22;63738;50.096;8.716;2022-10-23T05:05:43;12.80;85.70
75161;DHT22;63738;50.096;8.716;2022-10-23T05:08:09;12.90;85.70
75161;DHT22;63738;50.096;8.716;2022-10-23T05:10:35;12.80;85.80
75161;DHT22;63738;50.096;8.716;2022-10-23T05:13:01;12.90;85.90
75161;DHT22;63738;50.096;8.716;2022-10-23T05:15:27;13.00;86.10
75161;DHT22;63738;50.096;8.716;2022-10-23T05:17:57;13.00;86.30
75161;DHT22;63738;50.096;8.716;2022-10-23T05:20:27;12.90;86.30
75161;DHT22;63738;50.096;8.716;2022-10-23T05:22:55;12.80;86.40
75161;DHT22;63738;50.096;8.716;2022-10-23T05:25:22;12.90;86.20
75161;DHT22;63738;50.096;8.716;2022-10-23T05:27:48;12.80;86.10
75161;DHT22;63738;50.096;8.716;2022-10-23T05:30:13;12.90;86.10
75161;DHT22;63738;50.096;8.716;2022-10-23T05:32:39;13.00;85.90
75161;DHT22;63738;50.096;8.716;2022-10-23T05:35:11;13.00;85.90
75161;DHT22;63738;50.096;8.716;2022-10-23T05:37:40;12.90;86.00
75161;DHT22;63738;50.096;8.716;2022-10-23T05:40:06;13.00;85.90
75161;DHT22;63738;50.096;8.716;2022-10-23T05:42:32;12.90;85.90
75161;DHT22;63738;50.096;8.716;2022-10-23T05:44:57;13.00;86.00
75161;DHT22;63738;50.096;8.716;2022-10-23T05:47:23;13.00;86.00
75161;DHT22;63738;50.096;8.716;2022-10-23T05:49:49;12.90;86.00
75161;DHT22;63738;50.096;8.716;2022-10-23T05:52:14;12.90;86.10
75161;DHT22;63738;50.096;8.716;2022-10-23T05:54:41;12.90;85.90
75161;DHT22;63738;50.096;8.716;2022-10-23T05:57:06;12.90;85.90
75161;DHT22;63738;50.096;8.716;2022-10-23T05:59:32;13.00;85.60
75161;DHT22;63738;50.096;8.716;2022-10-23T06:01:57;13.00;85.70
75161;DHT22;63738;50.096;8.716;2022-10-23T06:04:23;13.00;85.80
75161;DHT22;63738;50.096;8.716;2022-10-23T06:06:49;13.00;85.70
75161;DHT22;63738;50.096;8.716;2022-10-23T06:09:15;12.80;85.80
75161;DHT22;63738;50.096;8.716;2022-10-23T06:11:41;12.80;86.10
75161;DHT22;63738;50.096;8.716;2022-10-23T06:14:06;12.80;86.00
75161;DHT22;63738;50.096;8.716;2022-10-23T06:16:32;12.80;86.10
75161;DHT22;63738;50.096;8.716;2022-10-23T06:18:58;12.80;86.10
75161;DHT22;63738;50.096;8.716;2022-10-23T06:21:25;12.80;86.30
75161;DHT22;63738;50.096;8.716;2022-10-23T06:23:50;12.90;86.10
75161;DHT22;63738;50.096;8.716;2022-10-23T06:26:17;12.80;86.10
75161;DHT22;63738;50.096;8.716;2022-10-23T06:28:43;12.70;86.40
75161;DHT22;63738;50.096;8.716;2022-10-23T06:31:14;12.80;86.10
75161;DHT22;63738;50.096;8.716;2022-10-23T06:33:41;12.80;85.90
75161;DHT22;63738;50.096;8.716;2022-10-23T06:36:06;12.80;85.90
75161;DHT22;63738;50.096;8.716;2022-10-23T06:38:35;13.00;86.30
75161;DHT22;63738;50.096;8.716;2022-10-23T06:41:05;13.00;86.00
75161;DHT22;63738;50.096;8.716;2022-10-23T06:43:31;13.10;86.20
75161;DHT22;63738;50.096;8.716;2022-10-23T06:46:00;13.20;85.60
75161;DHT22;63738;50.096;8.716;2022-10-23T06:48:27;13.20;85.40
75161;DHT22;63738;50.096;8.716;2022-10-23T06:50:52;13.20;85.40
75161;DHT22;63738;50.096;8.716;2022-10-23T06:53:18;13.20;85.60
75161;DHT22;63738;50.096;8.716;2022-10-23T06:55:43;13.40;85.10
75161;DHT22;63738;50.096;8.716;2022-10-23T06:58:09;13.50;85.00
75161;DHT22;63738;50.096;8.716;2022-10-23T07:00:38;13.50;84.90
75161;DHT22;63738;50.096;8.716;2022-10-23T07:03:04;13.50;85.00
75161;DHT22;63738;50.096;8.716;2022-10-23T07:05:31;13.40;85.40
75161;DHT22;63738;50.096;8.716;2022-10-23T07:07:57;13.60;85.50
75161;DHT22;63738;50.096;8.716;2022-10-23T07:10:22;13.60;85.40
75161;DHT22;63738;50.096;8.716;2022-10-23T07:12:48;13.80;85.20
75161;DHT22;63738;50.096;8.716;2022-10-23T07:15:14;13.80;85.00
75161;DHT22;63738;50.096;8.716;2022-10-23T07:17:40;14.00;84.80
75161;DHT22;63738;50.096;8.716;2022-10-23T07:20:06;14.10;84.80
75161;DHT22;63738;50.096;8.716;2022-10-23T07:22:32;14.40;84.20
75161;DHT22;63738;50.096;8.716;2022-10-23T07:24:57;14.50;84.00
75161;DHT22;63738;50.096;8.716;2022-10-23T07:27:23;14.60;83.70
75161;DHT22;63738;50.096;8.716;2022-10-23T07:29:49;14.70;83.50
75161;DHT22;63738;50.096;8.716;2022-10-23T07:32:15;14.80;83.60
75161;DHT22;63738;50.096;8.716;2022-10-23T07:34:41;14.90;83.20
75161;DHT22;63738;50.096;8.716;2022-10-23T07:37:06;15.10;83.00
75161;DHT22;63738;50.096;8.716;2022-10-23T07:39:32;15.30;82.80
75161;DHT22;63738;50.096;8.716;2022-10-23T07:41:58;15.40;82.30
75161;DHT22;63738;50.096;8.716;2022-10-23T07:44:23;15.50;81.50
75161;DHT22;63738;50.096;8.716;2022-10-23T07:46:49;15.70;81.30
75161;DHT22;63738;50.096;8.716;2022-10-23T07:49:15;15.70;81.20
75161;DHT22;63738;50.096;8.716;2022-10-23T07:51:40;16.10;80.70
75161;DHT22;63738;50.096;8.716;2022-10-23T07:54:06;16.40;80.40
75161;DHT22;63738;50.096;8.716;2022-10-23T07:56:32;16.50;79.80
75161;DHT22;63738;50.096;8.716;2022-10-23T07:58:57;16.80;79.20
75161;DHT22;63738;50.096;8.716;2022-10-23T08:01:35;17.00;78.90
75161;DHT22;63738;50.096;8.716;2022-10-23T08:04:02;17.40;78.20
75161;DHT22;63738;50.096;8.716;2022-10-23T08:06:28;17.70;77.30
75161;DHT22;63738;50.096;8.716;2022-10-23T08:08:54;17.90;77.20
75161;DHT22;63738;50.096;8.716;2022-10-23T08:11:22;18.20;75.80
75161;DHT22;63738;50.096;8.716;2022-10-23T08:13:52;18.30;75.40
75161;DHT22;63738;50.096;8.716;2022-10-23T08:16:19;18.40;75.00
75161;DHT22;63738;50.096;8.716;2022-10-23T08:18:44;18.40;75.20
75161;DHT22;63738;50.096;8.716;2022-10-23T08:21:10;18.50;75.10
75161;DHT22;63738;50.096;8.716;2022-10-23T08:23:36;18.90;74.50
75161;DHT22;63738;50.096;8.716;2022-10-23T08:26:03;19.30;73.70
75161;DHT22;63738;50.096;8.716;2022-10-23T08:28:30;19.60;72.80
75161;DHT22;63738;50.096;8.716;2022-10-23T08:30:56;20.20;71.70
75161;DHT22;63738;50.096;8.716;2022-10-23T08:33:22;20.70;70.10
75161;DHT22;63738;50.096;8.716;2022-10-23T08:35:48;20.70;69.80
75161;DHT22;63738;50.096;8.716;2022-10-23T08:38:14;21.30;67.60
75161;DHT22;63738;50.096;8.716;2022-10-23T08:40:43;21.10;67.60
75161;DHT22;63738;50.096;8.716;2022-10-23T08:45:57;20.70;70.20
75161;DHT22;63738;50.096;8.716;2022-10-23T08:48:41;20.50;70.50
75161;DHT22;63738;50.096;8.716;2022-10-23T08:51:16;20.30;71.20
75161;DHT22;63738;50.096;8.716;2022-10-23T08:56:38;20.20;71.30
75161;DHT22;63738;50.096;8.716;2022-10-23T08:59:28;19.50;72.90
75161;DHT22;63738;50.096;8.716;2022-10-23T09:04:47;19.40;73.40
75161;DHT22;63738;50.096;8.716;2022-10-23T09:12:29;19.10;74.40
75161;DHT22;63738;50.096;8.716;2022-10-23T09:17:32;19.00;74.40
75161;DHT22;63738;50.096;8.716;2022-10-23T09:20:21;18.60;75.10
75161;DHT22;63738;50.096;8.716;2022-10-23T09:22:49;18.50;75.40
75161;DHT22;63738;50.096;8.716;2022-10-23T09:25:27;18.00;77.60
75161;DHT22;63738;50.096;8.716;2022-10-23T09:27:56;17.80;78.00
75161;DHT22;63738;50.096;8.716;2022-10-23T09:30:31;17.20;79.20
75161;DHT22;63738;50.096;8.716;2022-10-23T09:32:57;17.10;79.80
75161;DHT22;63738;50.096;8.716;2022-10-23T09:35:26;17.10;80.00
75161;DHT22;63738;50.096;8.716;2022-10-23T09:37:52;17.20;79.80
75161;DHT22;63738;50.096;8.716;2022-10-23T09:40:20;17.20;79.90
75161;DHT22;63738;50.096;8.716;2022-10-23T09:42:56;17.30;79.60
75161;DHT22;63738;50.096;8.716;2022-10-23T09:45:25;17.50;79.40
75161;DHT22;63738;50.096;8.716;2022-10-23T09:50:30;17.30;79.40
75161;DHT22;63738;50.096;8.716;2022-10-23T09:52:56;17.30;79.50
75161;DHT22;63738;50.096;8.716;2022-10-23T09:55:23;17.20;79.90
75161;DHT22;63738;50.096;8.716;2022-10-23T09:57:51;17.50;79.90
75161;DHT22;63738;50.096;8.716;2022-10-23T10:00:24;18.00;79.10
75161;DHT22;63738;50.096;8.716;2022-10-23T10:03:04;18.40;77.00
75161;DHT22;63738;50.096;8.716;2022-10-23T10:05:37;18.50;76.60
75161;DHT22;63738;50.096;8.716;2022-10-23T10:08:20;18.70;76.50
75161;DHT22;63738;50.096;8.716;2022-10-23T10:10:57;19.00;76.00
75161;DHT22;63738;50.096;8.716;2022-10-23T10:24:17;20.50;72.70
75161;DHT22;63738;50.096;8.716;2022-10-23T10:34:54;19.40;75.00
75161;DHT22;63738;50.096;8.716;2022-10-23T10:43:09;18.90;76.10
75161;DHT22;63738;50.096;8.716;2022-10-23T10:48:40;18.70;76.90
75161;DHT22;63738;50.096;8.716;2022-10-23T10:51:10;18.60;76.40
75161;DHT22;63738;50.096;8.716;2022-10-23T10:56:37;18.50;76.30
75161;DHT22;63738;50.096;8.716;2022-10-23T10:59:13;18.50;76.90
75161;DHT22;63738;50.096;8.716;2022-10-23T11:01:48;18.50;76.70
75161;DHT22;63738;50.096;8.716;2022-10-23T11:04:44;18.40;76.80
75161;DHT22;63738;50.096;8.716;2022-10-23T11:07:14;18.30;76.70
75161;DHT22;63738;50.096;8.716;2022-10-23T11:09:43;18.30;77.30
75161;DHT22;63738;50.096;8.716;2022-10-23T11:12:22;18.30;77.40
75161;DHT22;63738;50.096;8.716;2022-10-23T11:14:49;18.30;77.10
75161;DHT22;63738;50.096;8.716;2022-10-23T11:17:23;18.40;77.50
75161;DHT22;63738;50.096;8.716;2022-10-23T11:20:13;18.80;77.00
75161;DHT22;63738;50.096;8.716;2022-10-23T11:22:51;19.30;76.40
75161;DHT22;63738;50.096;8.716;2022-10-23T11:28:06;20.40;74.60
75161;DHT22;63738;50.096;8.716;2022-10-23T11:37:01;20.70;73.10
75161;DHT22;63738;50.096;8.716;2022-10-23T11:39:33;20.70;73.10
75161;DHT22;63738;50.096;8.716;2022-10-23T11:42:14;21.10;71.80
75161;DHT22;63738;50.096;8.716;2022-10-23T11:44:53;21.50;70.20
75161;DHT22;63738;50.096;8.716;2022-10-23T11:47:37;21.40;70.60
75161;DHT22;63738;50.096;8.716;2022-10-23T11:52:33;21.00;71.70
75161;DHT22;63738;50.096;8.716;2022-10-23T11:55:19;20.70;73.30
75161;DHT22;63738;50.096;8.716;2022-10-23T12:00:33;20.20;74.20
75161;DHT22;63738;50.096;8.716;2022-10-23T12:03:02;20.40;73.30
75161;DHT22;63738;50.096;8.716;2022-10-23T12:05:36;20.90;72.50
75161;DHT22;63738;50.096;8.716;2022-10-23T12:08:16;21.80;69.80
75161;DHT22;63738;50.096;8.716;2022-10-23T12:10:46;22.70;65.20
75161;DHT22;63738;50.096;8.716;2022-10-23T12:16:06;27.70;54.10
75161;DHT22;63738;50.096;8.716;2022-10-23T12:18:32;29.30;50.10
75161;DHT22;63738;50.096;8.716;2022-10-23T12:21:01;30.60;48.40
75161;DHT22;63738;50.096;8.716;2022-10-23T12:29:27;32.20;45.60
75161;DHT22;63738;50.096;8.716;2022-10-23T12:34:37;31.90;44.90
75161;DHT22;63738;50.096;8.716;2022-10-23T12:39:58;31.10;46.60
75161;DHT22;63738;50.096;8.716;2022-10-23T12:42:28;32.00;45.20
75161;DHT22;63738;50.096;8.716;2022-10-23T12:47:28;32.30;44.30
75161;DHT22;63738;50.096;8.716;2022-10-23T12:49:54;31.70;46.00
75161;DHT22;63738;50.096;8.716;2022-10-23T12:52:20;30.40;47.10
75161;DHT22;63738;50.096;8.716;2022-10-23T12:54:48;28.60;49.80
75161;DHT22;63738;50.096;8.716;2022-10-23T12:57:26;27.10;52.40
75161;DHT22;63738;50.096;8.716;2022-10-23T12:59:57;25.80;55.60
75161;DHT22;63738;50.096;8.716;2022-10-23T13:02:29;24.50;57.50
75161;DHT22;63738;50.096;8.716;2022-10-23T13:04:57;23.50;60.50
75161;DHT22;63738;50.096;8.716;2022-10-23T13:07:28;23.10;61.70
75161;DHT22;63738;50.096;8.716;2022-10-23T13:09:56;22.70;62.90
75161;DHT22;63738;50.096;8.716;2022-10-23T13:12:28;22.30;64.50
75161;DHT22;63738;50.096;8.716;2022-10-23T13:15:17;22.50;64.50
75161;DHT22;63738;50.096;8.716;2022-10-23T13:18:05;22.50;63.90
75161;DHT22;63738;50.096;8.716;2022-10-23T13:20:36;22.30;64.40
75161;DHT22;63738;50.096;8.716;2022-10-23T13:23:31;22.10;64.90
75161;DHT22;63738;50.096;8.716;2022-10-23T13:26:04;22.10;64.80
75161;DHT22;63738;50.096;8.716;2022-10-23T13:28:43;21.80;65.80
75161;DHT22;63738;50.096;8.716;2022-10-23T13:33:43;21.80;66.30
75161;DHT22;63738;50.096;8.716;2022-10-23T13:41:41;21.90;65.90
75161;DHT22;63738;50.096;8.716;2022-10-23T13:44:12;21.90;66.10
75161;DHT22;63738;50.096;8.716;2022-10-23T13:46:38;21.70;66.20
75161;DHT22;63738;50.096;8.716;2022-10-23T13:49:03;21.60;66.50
75161;DHT22;63738;50.096;8.716;2022-10-23T13:51:33;21.50;67.10
75161;DHT22;63738;50.096;8.716;2022-10-23T13:53:59;21.30;67.00
75161;DHT22;63738;50.096;8.716;2022-10-23T13:56:26;21.30;67.90
75161;DHT22;63738;50.096;8.716;2022-10-23T13:58:52;21.50;67.50
75161;DHT22;63738;50.096;8.716;2022-10-23T14:01:23;21.60;67.30
75161;DHT22;63738;50.096;8.716;2022-10-23T14:03:51;21.50;67.40
75161;DHT22;63738;50.096;8.716;2022-10-23T14:06:16;21.30;68.60
75161;DHT22;63738;50.096;8.716;2022-10-23T14:08:42;21.10;68.50
75161;DHT22;63738;50.096;8.716;2022-10-23T14:11:09;21.00;68.90
75161;DHT22;63738;50.096;8.716;2022-10-23T14:13:35;20.70;70.90
75161;DHT22;63738;50.096;8.716;2022-10-23T14:16:01;20.70;71.40
75161;DHT22;63738;50.096;8.716;2022-10-23T14:18:27;20.70;71.20
75161;DHT22;63738;50.096;8.716;2022-10-23T14:20:52;20.80;70.60
75161;DHT22;63738;50.096;8.716;2022-10-23T14:23:18;20.70;71.50
75161;DHT22;63738;50.096;8.716;2022-10-23T14:25:43;20.60;71.90
75161;DHT22;63738;50.096;8.716;2022-10-23T14:28:09;20.70;71.80
75161;DHT22;63738;50.096;8.716;2022-10-23T14:30:35;20.60;72.00
75161;DHT22;63738;50.096;8.716;2022-10-23T14:33:02;20.70;72.00
75161;DHT22;63738;50.096;8.716;2022-10-23T14:35:27;20.70;72.40
75161;DHT22;63738;50.096;8.716;2022-10-23T14:37:53;20.60;72.50
75161;DHT22;63738;50.096;8.716;2022-10-23T14:40:19;20.50;72.40
75161;DHT22;63738;50.096;8.716;2022-10-23T14:42:46;20.50;72.90
75161;DHT22;63738;50.096;8.716;2022-10-23T14:45:12;20.50;73.40
75161;DHT22;63738;50.096;8.716;2022-10-23T14:47:37;20.50;73.30
75161;DHT22;63738;50.096;8.716;2022-10-23T14:50:03;20.50;73.20
75161;DHT22;63738;50.096;8.716;2022-10-23T14:52:29;20.40;73.70
75161;DHT22;63738;50.096;8.716;2022-10-23T14:54:54;20.30;73.80
75161;DHT22;63738;50.096;8.716;2022-10-23T14:57:20;20.20;74.00
75161;DHT22;63738;50.096;8.716;2022-10-23T14:59:48;20.20;73.90
75161;DHT22;63738;50.096;8.716;2022-10-23T15:02:14;20.10;74.30
75161;DHT22;63738;50.096;8.716;2022-10-23T15:04:40;20.10;74.60
75161;DHT22;63738;50.096;8.716;2022-10-23T15:07:06;20.00;74.80
75161;DHT22;63738;50.096;8.716;2022-10-23T15:09:32;19.90;75.20
75161;DHT22;63738;50.096;8.716;2022-10-23T15:12:04;19.90;75.30
75161;DHT22;63738;50.096;8.716;2022-10-23T15:14:29;19.80;75.60
75161;DHT22;63738;50.096;8.716;2022-10-23T15:16:55;19.70;76.00
75161;DHT22;63738;50.096;8.716;2022-10-23T15:19:21;19.70;76.20
75161;DHT22;63738;50.096;8.716;2022-10-23T15:21:47;19.60;76.80
75161;DHT22;63738;50.096;8.716;2022-10-23T15:24:14;19.60;76.90
75161;DHT22;63738;50.096;8.716;2022-10-23T15:26:40;19.50;76.70
75161;DHT22;63738;50.096;8.716;2022-10-23T15:29:08;19.50;76.60
75161;DHT22;63738;50.096;8.716;2022-10-23T15:34:14;19.50;76.60
75161;DHT22;63738;50.096;8.716;2022-10-23T15:36:40;19.50;76.80
75161;DHT22;63738;50.096;8.716;2022-10-23T15:39:08;19.50;76.90
75161;DHT22;63738;50.096;8.716;2022-10-23T15:41:35;19.40;76.90
75161;DHT22;63738;50.096;8.716;2022-10-23T15:44:03;19.30;77.10
75161;DHT22;63738;50.096;8.716;2022-10-23T15:46:30;19.30;77.20
75161;DHT22;63738;50.096;8.716;2022-10-23T15:48:55;19.20;77.50
75161;DHT22;63738;50.096;8.716;2022-10-23T15:51:21;19.20;77.40
75161;DHT22;63738;50.096;8.716;2022-10-23T15:53:47;19.20;77.70
75161;DHT22;63738;50.096;8.716;2022-10-23T15:56:13;19.10;77.60
75161;DHT22;63738;50.096;8.716;2022-10-23T15:58:38;19.10;77.60
75161;DHT22;63738;50.096;8.716;2022-10-23T16:01:04;19.10;77.80
75161;DHT22;63738;50.096;8.716;2022-10-23T16:03:32;19.10;77.90
75161;DHT22;63738;50.096;8.716;2022-10-23T16:05:57;19.10;77.90
75161;DHT22;63738;50.096;8.716;2022-10-23T16:08:23;19.00;77.90
75161;DHT22;63738;50.096;8.716;2022-10-23T16:10:50;19.00;78.10
75161;DHT22;63738;50.096;8.716;2022-10-23T16:13:16;19.00;78.20
75161;DHT22;63738;50.096;8.716;2022-10-23T16:15:42;18.90;78.10
75161;DHT22;63738;50.096;8.716;2022-10-23T16:18:07;18.90;78.20
75161;DHT22;63738;50.096;8.716;2022-10-23T16:20:33;18.90;78.90
75161;DHT22;63738;50.096;8.716;2022-10-23T16:22:59;18.90;78.70
75161;DHT22;63738;50.096;8.716;2022-10-23T16:25:24;18.80;78.60
75161;DHT22;63738;50.096;8.716;2022-10-23T16:27:50;18.90;78.40
75161;DHT22;63738;50.096;8.716;2022-10-23T16:30:16;18.90;78.50
75161;DHT22;63738;50.096;8.716;2022-10-23T16:32:41;18.90;78.40
75161;DHT22;63738;50.096;8.716;2022-10-23T16:35:08;18.90;78.40
75161;DHT22;63738;50.096;8.716;2022-10-23T16:37:34;18.80;78.50
75161;DHT22;63738;50.096;8.716;2022-10-23T16:39:59;18.80;78.80
75161;DHT22;63738;50.096;8.716;2022-10-23T16:42:26;18.80;78.70
75161;DHT22;63738;50.096;8.716;2022-10-23T16:44:52;18.80;78.80
75161;DHT22;63738;50.096;8.716;2022-10-23T16:47:17;18.80;78.70
75161;DHT22;63738;50.096;8.716;2022-10-23T16:49:43;18.80;79.00
75161;DHT22;63738;50.096;8.716;2022-10-23T16:52:09;18.80;79.60
75161;DHT22;63738;50.096;8.716;2022-10-23T16:54:35;18.70;80.00
75161;DHT22;63738;50.096;8.716;2022-10-23T16:57:00;18.70;80.10
75161;DHT22;63738;50.096;8.716;2022-10-23T16:59:26;18.70;80.60
75161;DHT22;63738;50.096;8.716;2022-10-23T17:01:51;18.60;81.00
75161;DHT22;63738;50.096;8.716;2022-10-23T17:04:17;18.50;81.20
75161;DHT22;63738;50.096;8.716;2022-10-23T17:06:43;18.40;81.20
75161;DHT22;63738;50.096;8.716;2022-10-23T17:09:08;18.30;81.60
75161;DHT22;63738;50.096;8.716;2022-10-23T17:11:36;18.40;81.50
75161;DHT22;63738;50.096;8.716;2022-10-23T17:14:10;18.30;81.20
75161;DHT22;63738;50.096;8.716;2022-10-23T17:16:50;18.30;81.40
75161;DHT22;63738;50.096;8.716;2022-10-23T17:19:19;18.20;81.60
75161;DHT22;63738;50.096;8.716;2022-10-23T17:21:45;18.20;81.70
75161;DHT22;63738;50.096;8.716;2022-10-23T17:24:11;18.20;81.90
75161;DHT22;63738;50.096;8.716;2022-10-23T17:26:38;18.10;82.20
75161;DHT22;63738;50.096;8.716;2022-10-23T17:29:06;18.10;82.40
75161;DHT22;63738;50.096;8.716;2022-10-23T17:31:35;18.10;82.50
75161;DHT22;63738;50.096;8.716;2022-10-23T17:34:02;18.10;83.00
75161;DHT22;63738;50.096;8.716;2022-10-23T17:36:32;18.00;83.30